createdAt,value
2018-04-10T00:00:09.275Z,14.6666666667
2018-04-10T00:00:21.450Z,14.6666666667
2018-04-10T00:00:33.618Z,14.6666666667
2018-04-10T00:00:45.800Z,14.6666666667
2018-04-10T00:00:57.975Z,14.6666666667
2018-04-10T00:01:10.124Z,14.6666666667
2018-04-10T00:01:22.276Z,14.6111111111
2018-04-10T00:01:34.412Z,14.6111111111
2018-04-10T00:01:46.548Z,14.6666666667
2018-04-10T00:01:58.724Z,14.6111111111
2018-04-10T00:02:10.859Z,14.6111111111
2018-04-10T00:02:23.023Z,14.6111111111
2018-04-10T00:02:35.181Z,14.6111111111
2018-04-10T00:02:47.407Z,14.6111111111
2018-04-10T00:02:59.566Z,14.6111111111
2018-04-10T00:03:11.700Z,14.6111111111
2018-04-10T00:03:23.840Z,14.6111111111
2018-04-10T00:03:35.988Z,14.6111111111
2018-04-10T00:03:48.134Z,14.5555555556
2018-04-10T00:04:00.273Z,14.5555555556
2018-04-10T00:04:12.416Z,14.5555555556
2018-04-10T00:04:24.566Z,14.6111111111
2018-04-10T00:04:36.709Z,14.5555555556
2018-04-10T00:04:48.849Z,14.5555555556
2018-04-10T00:05:00.979Z,14.5555555556
2018-04-10T00:05:13.103Z,14.5555555556
2018-04-10T00:05:25.246Z,14.5555555556
2018-04-10T00:05:37.389Z,14.5555555556
2018-04-10T00:05:49.522Z,14.5555555556
2018-04-10T00:06:01.673Z,14.5555555556
2018-04-10T00:06:13.846Z,14.5555555556
2018-04-10T00:06:25.981Z,14.5555555556
2018-04-10T00:06:38.129Z,14.5555555556
2018-04-10T00:06:50.306Z,14.5555555556
2018-04-10T00:07:02.535Z,14.5555555556
2018-04-10T00:07:14.923Z,14.5
2018-04-10T00:07:27.112Z,14.5
2018-04-10T00:07:39.294Z,14.5
2018-04-10T00:07:51.436Z,14.5
2018-04-10T00:08:03.587Z,14.5
2018-04-10T00:08:15.740Z,14.5
2018-04-10T00:08:27.867Z,14.5
2018-04-10T00:08:40.001Z,14.5
2018-04-10T00:08:52.148Z,14.5
2018-04-10T00:09:04.296Z,14.5
2018-04-10T00:09:16.442Z,14.5
2018-04-10T00:09:28.589Z,14.5
2018-04-10T00:09:40.724Z,14.5
2018-04-10T00:09:52.850Z,14.5
2018-04-10T00:10:05.016Z,14.5
2018-04-10T00:10:17.169Z,14.4444444444
2018-04-10T00:10:29.306Z,14.5
2018-04-10T00:10:41.443Z,14.5
2018-04-10T00:10:53.592Z,14.5
2018-04-10T00:11:05.730Z,14.5
2018-04-10T00:11:17.874Z,14.5
2018-04-10T00:11:30.013Z,14.4444444444
2018-04-10T00:11:42.159Z,14.5
2018-04-10T00:11:54.289Z,14.5
2018-04-10T00:12:06.424Z,14.5
2018-04-10T00:12:18.549Z,14.4444444444
2018-04-10T00:12:30.688Z,14.5
2018-04-10T00:12:42.916Z,14.5
2018-04-10T00:12:55.204Z,14.5
2018-04-10T00:13:07.490Z,14.5
2018-04-10T00:13:19.616Z,14.5
2018-04-10T00:13:31.767Z,14.5
2018-04-10T00:13:43.902Z,14.5
2018-04-10T00:13:56.075Z,14.4444444444
2018-04-10T00:14:08.200Z,14.5
2018-04-10T00:14:20.461Z,14.5
2018-04-10T00:14:32.591Z,14.5
2018-04-10T00:14:44.755Z,14.4444444444
2018-04-10T00:14:56.892Z,14.5
2018-04-10T00:15:09.037Z,14.4444444444
2018-04-10T00:15:21.185Z,14.5
2018-04-10T00:15:33.337Z,14.5
2018-04-10T00:15:45.767Z,14.5
2018-04-10T00:15:57.945Z,14.4444444444
2018-04-10T00:16:10.087Z,14.4444444444
2018-04-10T00:16:22.218Z,14.4444444444
2018-04-10T00:16:34.365Z,14.4444444444
2018-04-10T00:16:46.539Z,14.5
2018-04-10T00:16:58.693Z,14.5
2018-04-10T00:17:10.841Z,14.4444444444
2018-04-10T00:17:22.990Z,14.4444444444
2018-04-10T00:17:35.140Z,14.5
2018-04-10T00:17:47.271Z,14.4444444444
2018-04-10T00:17:59.548Z,14.4444444444
2018-04-10T00:18:11.718Z,14.4444444444
2018-04-10T00:18:23.867Z,14.4444444444
2018-04-10T00:18:36.020Z,14.4444444444
2018-04-10T00:18:48.163Z,14.4444444444
2018-04-10T00:19:00.299Z,14.4444444444
2018-04-10T00:19:12.442Z,14.4444444444
2018-04-10T00:19:24.600Z,14.4444444444
2018-04-10T00:19:36.733Z,14.4444444444
2018-04-10T00:19:48.885Z,14.3888888889
2018-04-10T00:20:01.020Z,14.4444444444
2018-04-10T00:20:13.165Z,14.3888888889
2018-04-10T00:20:25.322Z,14.4444444444
2018-04-10T00:20:37.470Z,14.3888888889
2018-04-10T00:20:49.611Z,14.3888888889
2018-04-10T00:21:01.742Z,14.3888888889
2018-04-10T00:21:13.885Z,14.3888888889
2018-04-10T00:21:26.012Z,14.3888888889
2018-04-10T00:21:38.141Z,14.3888888889
2018-04-10T00:21:50.258Z,14.3888888889
2018-04-10T00:22:02.406Z,14.3888888889
2018-04-10T00:22:14.553Z,14.3888888889
2018-04-10T00:22:26.729Z,14.3888888889
2018-04-10T00:22:38.857Z,14.3888888889
2018-04-10T00:22:50.997Z,14.3888888889
2018-04-10T00:23:03.348Z,14.3333333333
2018-04-10T00:23:15.497Z,14.3888888889
2018-04-10T00:23:27.641Z,14.3888888889
2018-04-10T00:23:39.835Z,14.3888888889
2018-04-10T00:23:51.984Z,14.3333333333
2018-04-10T00:24:04.119Z,14.3333333333
2018-04-10T00:24:16.259Z,14.3888888889
2018-04-10T00:24:28.402Z,14.3888888889
2018-04-10T00:24:40.544Z,14.3333333333
2018-04-10T00:24:52.674Z,14.3333333333
2018-04-10T00:25:04.803Z,14.3333333333
2018-04-10T00:25:16.928Z,14.3333333333
2018-04-10T00:25:29.083Z,14.3333333333
2018-04-10T00:25:41.246Z,14.3888888889
2018-04-10T00:25:53.383Z,14.3333333333
2018-04-10T00:26:05.527Z,14.3333333333
2018-04-10T00:26:17.664Z,14.3888888889
2018-04-10T00:26:29.808Z,14.3333333333
2018-04-10T00:26:41.946Z,14.3888888889
2018-04-10T00:26:54.086Z,14.3888888889
2018-04-10T00:27:06.244Z,14.3888888889
2018-04-10T00:27:18.394Z,14.3888888889
2018-04-10T00:27:30.559Z,14.3888888889
2018-04-10T00:27:42.690Z,14.3888888889
2018-04-10T00:27:54.911Z,14.3888888889
2018-04-10T00:28:07.055Z,14.3888888889
2018-04-10T00:28:19.201Z,14.3888888889
2018-04-10T00:28:31.341Z,14.3888888889
2018-04-10T00:28:43.494Z,14.3888888889
2018-04-10T00:28:55.643Z,14.3888888889
2018-04-10T00:29:07.783Z,14.3888888889
2018-04-10T00:29:19.919Z,14.3333333333
2018-04-10T00:29:32.073Z,14.3888888889
2018-04-10T00:29:44.215Z,14.3888888889
2018-04-10T00:29:56.355Z,14.3888888889
2018-04-10T00:30:08.501Z,14.3888888889
2018-04-10T00:30:20.663Z,14.3888888889
2018-04-10T00:30:32.817Z,14.3888888889
2018-04-10T00:30:45.038Z,14.3888888889
2018-04-10T00:30:57.199Z,14.3333333333
2018-04-10T00:31:09.333Z,14.3888888889
2018-04-10T00:31:21.455Z,14.3888888889
2018-04-10T00:31:33.600Z,14.3888888889
2018-04-10T00:31:45.762Z,14.3888888889
2018-04-10T00:31:57.904Z,14.3888888889
2018-04-10T00:32:10.043Z,14.3888888889
2018-04-10T00:32:22.188Z,14.3888888889
2018-04-10T00:32:34.342Z,14.3888888889
2018-04-10T00:32:46.484Z,14.3888888889
2018-04-10T00:32:58.821Z,14.3888888889
2018-04-10T00:33:10.951Z,14.3888888889
2018-04-10T00:33:23.075Z,14.3888888889
2018-04-10T00:33:35.236Z,14.3888888889
2018-04-10T00:33:47.363Z,14.3888888889
2018-04-10T00:33:59.501Z,14.3888888889
2018-04-10T00:34:11.637Z,14.3888888889
2018-04-10T00:34:23.782Z,14.3888888889
2018-04-10T00:34:35.915Z,14.3888888889
2018-04-10T00:34:48.062Z,14.3888888889
2018-04-10T00:35:00.236Z,14.3888888889
2018-04-10T00:35:12.378Z,14.3888888889
2018-04-10T00:35:24.514Z,14.3888888889
2018-04-10T00:35:36.653Z,14.3888888889
2018-04-10T00:35:48.794Z,14.3888888889
2018-04-10T00:36:00.946Z,14.3888888889
2018-04-10T00:36:13.105Z,14.3888888889
2018-04-10T00:36:25.255Z,14.3888888889
2018-04-10T00:36:37.402Z,14.4444444444
2018-04-10T00:36:49.550Z,14.3888888889
2018-04-10T00:37:01.686Z,14.3888888889
2018-04-10T00:37:13.813Z,14.3888888889
2018-04-10T00:37:25.971Z,14.3888888889
2018-04-10T00:37:38.124Z,14.3888888889
2018-04-10T00:37:50.270Z,14.3888888889
2018-04-10T00:38:02.482Z,14.3888888889
2018-04-10T00:38:14.805Z,14.4444444444
2018-04-10T00:38:26.948Z,14.4444444444
2018-04-10T00:38:39.078Z,14.3888888889
2018-04-10T00:38:51.248Z,14.4444444444
2018-04-10T00:39:03.378Z,14.4444444444
2018-04-10T00:39:15.512Z,14.3888888889
2018-04-10T00:39:27.649Z,14.4444444444
2018-04-10T00:39:39.799Z,14.4444444444
2018-04-10T00:39:51.933Z,14.4444444444
2018-04-10T00:40:04.073Z,14.4444444444
2018-04-10T00:40:16.219Z,14.4444444444
2018-04-10T00:40:28.360Z,14.4444444444
2018-04-10T00:40:40.489Z,14.4444444444
2018-04-10T00:40:52.635Z,14.4444444444
2018-04-10T00:41:04.774Z,14.4444444444
2018-04-10T00:41:16.914Z,14.4444444444
2018-04-10T00:41:29.118Z,14.4444444444
2018-04-10T00:41:41.248Z,14.4444444444
2018-04-10T00:41:53.393Z,14.4444444444
2018-04-10T00:42:05.519Z,14.4444444444
2018-04-10T00:42:17.713Z,14.4444444444
2018-04-10T00:42:29.842Z,14.4444444444
2018-04-10T00:42:41.982Z,14.5
2018-04-10T00:42:54.111Z,14.4444444444
2018-04-10T00:43:06.271Z,14.5
2018-04-10T00:43:18.401Z,14.4444444444
2018-04-10T00:43:30.549Z,14.5
2018-04-10T00:43:42.684Z,14.5
2018-04-10T00:43:54.834Z,14.5
2018-04-10T00:44:06.973Z,14.4444444444
2018-04-10T00:44:19.118Z,14.5
2018-04-10T00:44:31.259Z,14.5
2018-04-10T00:44:43.427Z,14.5
2018-04-10T00:44:55.559Z,14.5
2018-04-10T00:45:07.694Z,14.5
2018-04-10T00:45:19.845Z,14.5
2018-04-10T00:45:32.004Z,14.5
2018-04-10T00:45:44.136Z,14.5
2018-04-10T00:45:56.263Z,14.5
2018-04-10T00:46:08.410Z,14.5
2018-04-10T00:46:20.719Z,14.5
2018-04-10T00:46:32.897Z,14.5
2018-04-10T00:46:45.030Z,14.5
2018-04-10T00:46:57.160Z,14.5
2018-04-10T00:47:09.291Z,14.5
2018-04-10T00:47:21.441Z,14.5
2018-04-10T00:47:33.777Z,14.5
2018-04-10T00:47:45.915Z,14.5
2018-04-10T00:47:58.095Z,14.5555555556
2018-04-10T00:48:10.640Z,14.5555555556
2018-04-10T00:48:22.798Z,14.5555555556
2018-04-10T00:48:34.975Z,14.5555555556
2018-04-10T00:48:47.110Z,14.5555555556
2018-04-10T00:48:59.253Z,14.5555555556
2018-04-10T00:49:11.392Z,14.5555555556
2018-04-10T00:49:23.555Z,14.5555555556
2018-04-10T00:49:35.872Z,14.5555555556
2018-04-10T00:49:48.026Z,14.5555555556
2018-04-10T00:50:00.172Z,14.5555555556
2018-04-10T00:50:12.307Z,14.5555555556
2018-04-10T00:50:24.441Z,14.5555555556
2018-04-10T00:50:36.593Z,14.5555555556
2018-04-10T00:50:48.731Z,14.5555555556
2018-04-10T00:51:00.867Z,14.5555555556
2018-04-10T00:51:13.055Z,14.5555555556
2018-04-10T00:51:25.329Z,14.5555555556
2018-04-10T00:51:37.472Z,14.5555555556
2018-04-10T00:51:49.635Z,14.5555555556
2018-04-10T00:52:01.778Z,14.5555555556
2018-04-10T00:52:13.922Z,14.5555555556
2018-04-10T00:52:26.056Z,14.5555555556
2018-04-10T00:52:38.346Z,14.5555555556
2018-04-10T00:52:50.490Z,14.5555555556
2018-04-10T00:53:02.664Z,14.5555555556
2018-04-10T00:53:14.800Z,14.5555555556
2018-04-10T00:53:26.925Z,14.5555555556
2018-04-10T00:53:39.056Z,14.5555555556
2018-04-10T00:53:51.211Z,14.5
2018-04-10T00:54:03.353Z,14.5
2018-04-10T00:54:15.493Z,14.5555555556
2018-04-10T00:54:27.635Z,14.5
2018-04-10T00:54:39.763Z,14.5555555556
2018-04-10T00:54:51.913Z,14.5555555556
2018-04-10T00:55:04.047Z,14.5
2018-04-10T00:55:16.184Z,14.5555555556
2018-04-10T00:55:28.323Z,14.5
2018-04-10T00:55:40.481Z,14.5
2018-04-10T00:55:52.636Z,14.5
2018-04-10T00:56:04.780Z,14.5
2018-04-10T00:56:16.927Z,14.5
2018-04-10T00:56:29.076Z,14.5
2018-04-10T00:56:41.219Z,14.5
2018-04-10T00:56:53.362Z,14.5
2018-04-10T00:57:05.505Z,14.5
2018-04-10T00:57:17.667Z,14.5
2018-04-10T00:57:29.808Z,14.5
2018-04-10T00:57:41.994Z,14.5
2018-04-10T00:57:54.170Z,14.5
2018-04-10T00:58:06.317Z,14.5
2018-04-10T00:58:18.495Z,14.5
2018-04-10T00:58:30.626Z,14.5
2018-04-10T00:58:42.763Z,14.5
2018-04-10T00:58:54.931Z,14.5
2018-04-10T00:59:07.069Z,14.5
2018-04-10T00:59:19.204Z,14.5
2018-04-10T00:59:31.350Z,14.5
2018-04-10T00:59:43.485Z,14.5
2018-04-10T00:59:55.641Z,14.5
2018-04-10T01:00:07.786Z,14.4444444444
2018-04-10T01:00:19.963Z,14.4444444444
2018-04-10T01:00:32.136Z,14.4444444444
2018-04-10T01:00:44.311Z,14.4444444444
2018-04-10T01:00:56.475Z,14.4444444444
2018-04-10T01:01:08.637Z,14.4444444444
2018-04-10T01:01:20.797Z,14.5
2018-04-10T01:01:32.936Z,14.4444444444
2018-04-10T01:01:45.080Z,14.4444444444
2018-04-10T01:01:57.231Z,14.4444444444
2018-04-10T01:02:09.391Z,14.4444444444
2018-04-10T01:02:21.568Z,14.4444444444
2018-04-10T01:02:33.742Z,14.4444444444
2018-04-10T01:02:45.925Z,14.4444444444
2018-04-10T01:02:58.090Z,14.4444444444
2018-04-10T01:03:10.236Z,14.4444444444
2018-04-10T01:03:22.398Z,14.4444444444
2018-04-10T01:03:34.557Z,14.4444444444
2018-04-10T01:03:46.702Z,14.4444444444
2018-04-10T01:03:58.845Z,14.4444444444
2018-04-10T01:04:11.041Z,14.4444444444
2018-04-10T01:04:23.224Z,14.4444444444
2018-04-10T01:04:35.383Z,14.4444444444
2018-04-10T01:04:47.558Z,14.4444444444
2018-04-10T01:04:59.707Z,14.4444444444
2018-04-10T01:05:11.858Z,14.4444444444
2018-04-10T01:05:23.993Z,14.4444444444
2018-04-10T01:05:36.131Z,14.3888888889
2018-04-10T01:05:48.324Z,14.3888888889
2018-04-10T01:06:00.467Z,14.3888888889
2018-04-10T01:06:12.603Z,14.4444444444
2018-04-10T01:06:24.759Z,14.4444444444
2018-04-10T01:06:36.918Z,14.3888888889
2018-04-10T01:06:49.108Z,14.3888888889
2018-04-10T01:07:01.241Z,14.4444444444
2018-04-10T01:07:13.374Z,14.3888888889
2018-04-10T01:07:25.505Z,14.3888888889
2018-04-10T01:07:37.749Z,14.3888888889
2018-04-10T01:07:49.897Z,14.3888888889
2018-04-10T01:08:02.037Z,14.3888888889
2018-04-10T01:08:14.211Z,14.3888888889
2018-04-10T01:08:26.350Z,14.3888888889
2018-04-10T01:08:38.492Z,14.3888888889
2018-04-10T01:08:50.617Z,14.3888888889
2018-04-10T01:09:02.757Z,14.3888888889
2018-04-10T01:09:14.897Z,14.3888888889
2018-04-10T01:09:27.025Z,14.3888888889
2018-04-10T01:09:39.180Z,14.3888888889
2018-04-10T01:09:51.332Z,14.3888888889
2018-04-10T01:10:03.486Z,14.3888888889
2018-04-10T01:10:15.625Z,14.3888888889
2018-04-10T01:10:27.758Z,14.3888888889
2018-04-10T01:10:39.904Z,14.3888888889
2018-04-10T01:10:52.049Z,14.3888888889
2018-04-10T01:11:04.175Z,14.3888888889
2018-04-10T01:11:16.331Z,14.3888888889
2018-04-10T01:11:28.451Z,14.3888888889
2018-04-10T01:11:40.571Z,14.3888888889
2018-04-10T01:11:52.707Z,14.3888888889
2018-04-10T01:12:04.983Z,14.3888888889
2018-04-10T01:12:17.129Z,14.3888888889
2018-04-10T01:12:29.289Z,14.3888888889
2018-04-10T01:12:41.419Z,14.3888888889
2018-04-10T01:12:53.563Z,14.3888888889
2018-04-10T01:13:05.855Z,14.3888888889
2018-04-10T01:13:18.133Z,14.3888888889
2018-04-10T01:13:30.258Z,14.3888888889
2018-04-10T01:13:42.404Z,14.3888888889
2018-04-10T01:13:54.558Z,14.3888888889
2018-04-10T01:14:06.722Z,14.3888888889
2018-04-10T01:14:18.870Z,14.3888888889
2018-04-10T01:14:30.995Z,14.4444444444
2018-04-10T01:14:43.145Z,14.3888888889
2018-04-10T01:14:55.301Z,14.4444444444
2018-04-10T01:15:07.449Z,14.3888888889
2018-04-10T01:15:19.607Z,14.3888888889
2018-04-10T01:15:31.773Z,14.4444444444
2018-04-10T01:15:44.142Z,14.4444444444
2018-04-10T01:15:56.281Z,14.4444444444
2018-04-10T01:16:08.445Z,14.4444444444
2018-04-10T01:16:20.599Z,14.4444444444
2018-04-10T01:16:32.739Z,14.4444444444
2018-04-10T01:16:44.899Z,14.4444444444
2018-04-10T01:16:57.035Z,14.4444444444
2018-04-10T01:17:09.157Z,14.4444444444
2018-04-10T01:17:21.291Z,14.4444444444
2018-04-10T01:17:33.462Z,14.4444444444
2018-04-10T01:17:45.599Z,14.4444444444
2018-04-10T01:17:57.878Z,14.4444444444
2018-04-10T01:18:10.023Z,14.4444444444
2018-04-10T01:18:22.176Z,14.4444444444
2018-04-10T01:18:34.313Z,14.4444444444
2018-04-10T01:18:46.448Z,14.5
2018-04-10T01:18:58.597Z,14.4444444444
2018-04-10T01:19:10.774Z,14.4444444444
2018-04-10T01:19:22.931Z,14.4444444444
2018-04-10T01:19:35.075Z,14.4444444444
2018-04-10T01:19:47.224Z,14.4444444444
2018-04-10T01:19:59.405Z,14.4444444444
2018-04-10T01:20:11.564Z,14.4444444444
2018-04-10T01:20:23.706Z,14.4444444444
2018-04-10T01:20:35.839Z,14.4444444444
2018-04-10T01:20:47.970Z,14.4444444444
2018-04-10T01:21:00.175Z,14.4444444444
2018-04-10T01:21:12.322Z,14.4444444444
2018-04-10T01:21:24.458Z,14.4444444444
2018-04-10T01:21:36.610Z,14.4444444444
2018-04-10T01:21:48.772Z,14.4444444444
2018-04-10T01:22:00.898Z,14.4444444444
2018-04-10T01:22:13.037Z,14.4444444444
2018-04-10T01:22:25.179Z,14.4444444444
2018-04-10T01:22:37.647Z,14.4444444444
2018-04-10T01:22:49.778Z,14.4444444444
2018-04-10T01:23:01.956Z,14.4444444444
2018-04-10T01:23:14.112Z,14.5
2018-04-10T01:23:26.254Z,14.4444444444
2018-04-10T01:23:38.401Z,14.4444444444
2018-04-10T01:23:50.601Z,14.4444444444
2018-04-10T01:24:02.722Z,14.5
2018-04-10T01:24:14.857Z,14.4444444444
2018-04-10T01:24:27.032Z,14.5
2018-04-10T01:24:39.174Z,14.5
2018-04-10T01:24:51.328Z,14.5
2018-04-10T01:25:03.468Z,14.5
2018-04-10T01:25:15.603Z,14.5
2018-04-10T01:25:27.733Z,14.5
2018-04-10T01:25:39.857Z,14.5
2018-04-10T01:25:51.996Z,14.5
2018-04-10T01:26:04.147Z,14.5
2018-04-10T01:26:16.308Z,14.5
2018-04-10T01:26:28.482Z,14.5
2018-04-10T01:26:40.639Z,14.5
2018-04-10T01:26:52.772Z,14.4444444444
2018-04-10T01:27:04.914Z,14.5
2018-04-10T01:27:17.068Z,14.5
2018-04-10T01:27:29.200Z,14.5
2018-04-10T01:27:41.364Z,14.5
2018-04-10T01:27:53.490Z,14.5
2018-04-10T01:28:05.633Z,14.5
2018-04-10T01:28:17.760Z,14.5
2018-04-10T01:28:29.893Z,14.5
2018-04-10T01:28:42.038Z,14.5
2018-04-10T01:28:54.181Z,14.5
2018-04-10T01:29:06.318Z,14.5
2018-04-10T01:29:18.452Z,14.5
2018-04-10T01:29:30.660Z,14.5555555556
2018-04-10T01:29:42.802Z,14.5
2018-04-10T01:29:54.963Z,14.5555555556
2018-04-10T01:30:07.160Z,14.5555555556
2018-04-10T01:30:19.296Z,14.5
2018-04-10T01:30:31.434Z,14.5555555556
2018-04-10T01:30:43.569Z,14.5
2018-04-10T01:30:55.709Z,14.5
2018-04-10T01:31:07.855Z,14.5
2018-04-10T01:31:19.980Z,14.5
2018-04-10T01:31:32.138Z,14.5
2018-04-10T01:31:44.271Z,14.5
2018-04-10T01:31:56.407Z,14.5
2018-04-10T01:32:08.563Z,14.5555555556
2018-04-10T01:32:20.703Z,14.5555555556
2018-04-10T01:32:32.854Z,14.5
2018-04-10T01:32:45.001Z,14.5
2018-04-10T01:32:57.133Z,14.5555555556
2018-04-10T01:33:09.282Z,14.5
2018-04-10T01:33:21.417Z,14.5
2018-04-10T01:33:33.546Z,14.5
2018-04-10T01:33:45.718Z,14.5
2018-04-10T01:33:57.878Z,14.4444444444
2018-04-10T01:34:10.020Z,14.5
2018-04-10T01:34:22.154Z,14.5
2018-04-10T01:34:34.386Z,14.5
2018-04-10T01:34:46.526Z,14.5
2018-04-10T01:34:58.657Z,14.5
2018-04-10T01:35:10.811Z,14.5
2018-04-10T01:35:22.943Z,14.5
2018-04-10T01:35:35.083Z,14.5
2018-04-10T01:35:47.241Z,14.5555555556
2018-04-10T01:35:59.393Z,14.5
2018-04-10T01:36:11.530Z,14.5
2018-04-10T01:36:23.696Z,14.5
2018-04-10T01:36:35.836Z,14.5
2018-04-10T01:36:47.987Z,14.5
2018-04-10T01:37:00.140Z,14.5
2018-04-10T01:37:12.285Z,14.5
2018-04-10T01:37:24.438Z,14.5
2018-04-10T01:37:36.584Z,14.5
2018-04-10T01:37:48.728Z,14.5555555556
2018-04-10T01:38:00.859Z,14.5
2018-04-10T01:38:13.168Z,14.5
2018-04-10T01:38:25.297Z,14.5
2018-04-10T01:38:37.445Z,14.5
2018-04-10T01:38:49.571Z,14.5
2018-04-10T01:39:01.720Z,14.5
2018-04-10T01:39:13.897Z,14.5
2018-04-10T01:39:26.029Z,14.5
2018-04-10T01:39:38.308Z,14.5
2018-04-10T01:39:50.449Z,14.5
2018-04-10T01:40:02.588Z,14.5
2018-04-10T01:40:14.737Z,14.5
2018-04-10T01:40:26.864Z,14.5
2018-04-10T01:40:39.019Z,14.5
2018-04-10T01:40:51.165Z,14.5
2018-04-10T01:41:03.325Z,14.5
2018-04-10T01:41:15.491Z,14.5
2018-04-10T01:41:27.632Z,14.5
2018-04-10T01:41:39.781Z,14.5
2018-04-10T01:41:51.917Z,14.4444444444
2018-04-10T01:42:04.078Z,14.5
2018-04-10T01:42:16.251Z,14.5
2018-04-10T01:42:28.390Z,14.5
2018-04-10T01:42:40.544Z,14.5
2018-04-10T01:42:52.699Z,14.5
2018-04-10T01:43:04.836Z,14.5
2018-04-10T01:43:16.959Z,14.5
2018-04-10T01:43:29.223Z,14.4444444444
2018-04-10T01:43:41.371Z,14.5
2018-04-10T01:43:53.510Z,14.5
2018-04-10T01:44:05.641Z,14.4444444444
2018-04-10T01:44:17.762Z,14.4444444444
2018-04-10T01:44:29.900Z,14.4444444444
2018-04-10T01:44:42.032Z,14.4444444444
2018-04-10T01:44:54.169Z,14.4444444444
2018-04-10T01:45:06.293Z,14.4444444444
2018-04-10T01:45:18.765Z,14.4444444444
2018-04-10T01:45:30.914Z,14.4444444444
2018-04-10T01:45:43.060Z,14.4444444444
2018-04-10T01:45:55.216Z,14.4444444444
2018-04-10T01:46:07.364Z,14.4444444444
2018-04-10T01:46:19.658Z,14.4444444444
2018-04-10T01:46:31.794Z,14.5
2018-04-10T01:46:43.939Z,14.5
2018-04-10T01:46:56.070Z,14.4444444444
2018-04-10T01:47:08.239Z,14.4444444444
2018-04-10T01:47:20.387Z,14.4444444444
2018-04-10T01:47:32.524Z,14.4444444444
2018-04-10T01:47:44.699Z,14.5
2018-04-10T01:47:56.830Z,14.5
2018-04-10T01:48:09.141Z,14.4444444444
2018-04-10T01:48:21.267Z,14.4444444444
2018-04-10T01:48:33.392Z,14.5
2018-04-10T01:48:45.539Z,14.4444444444
2018-04-10T01:48:57.675Z,14.5
2018-04-10T01:49:09.815Z,14.4444444444
2018-04-10T01:49:21.966Z,14.4444444444
2018-04-10T01:49:34.190Z,14.4444444444
2018-04-10T01:49:46.327Z,14.4444444444
2018-04-10T01:49:58.456Z,14.4444444444
2018-04-10T01:50:10.588Z,14.4444444444
2018-04-10T01:50:22.740Z,14.4444444444
2018-04-10T01:50:34.902Z,14.4444444444
2018-04-10T01:50:47.041Z,14.4444444444
2018-04-10T01:50:59.202Z,14.4444444444
2018-04-10T01:51:11.329Z,14.4444444444
2018-04-10T01:51:23.478Z,14.4444444444
2018-04-10T01:51:35.779Z,14.4444444444
2018-04-10T01:51:47.916Z,14.4444444444
2018-04-10T01:52:00.044Z,14.4444444444
2018-04-10T01:52:12.210Z,14.4444444444
2018-04-10T01:52:24.357Z,14.4444444444
2018-04-10T01:52:36.584Z,14.4444444444
2018-04-10T01:52:48.774Z,14.4444444444
2018-04-10T01:53:00.940Z,14.4444444444
2018-04-10T01:53:13.084Z,14.4444444444
2018-04-10T01:53:25.214Z,14.4444444444
2018-04-10T01:53:37.343Z,14.4444444444
2018-04-10T01:53:49.473Z,14.4444444444
2018-04-10T01:54:01.615Z,14.5
2018-04-10T01:54:13.749Z,14.5
2018-04-10T01:54:25.881Z,14.5
2018-04-10T01:54:38.033Z,14.5
2018-04-10T01:54:50.170Z,14.4444444444
2018-04-10T01:55:02.306Z,14.5
2018-04-10T01:55:14.449Z,14.5
2018-04-10T01:55:26.579Z,14.5
2018-04-10T01:55:38.772Z,14.5
2018-04-10T01:55:50.923Z,14.5
2018-04-10T01:56:03.075Z,14.5
2018-04-10T01:56:15.229Z,14.5
2018-04-10T01:56:27.366Z,14.5
2018-04-10T01:56:39.510Z,14.5555555556
2018-04-10T01:56:51.656Z,14.5
2018-04-10T01:57:03.799Z,14.5
2018-04-10T01:57:15.941Z,14.5555555556
2018-04-10T01:57:28.067Z,14.5555555556
2018-04-10T01:57:40.459Z,14.5555555556
2018-04-10T01:57:52.612Z,14.5555555556
2018-04-10T01:58:04.758Z,14.5555555556
2018-04-10T01:58:16.913Z,14.5555555556
2018-04-10T01:58:29.052Z,14.5555555556
2018-04-10T01:58:41.176Z,14.5555555556
2018-04-10T01:58:53.320Z,14.5
2018-04-10T01:59:05.446Z,14.5
2018-04-10T01:59:17.602Z,14.5
2018-04-10T01:59:29.740Z,14.5
2018-04-10T01:59:41.889Z,14.5
2018-04-10T01:59:54.031Z,14.5
2018-04-10T02:00:06.174Z,14.5
2018-04-10T02:00:18.331Z,14.5
2018-04-10T02:00:30.512Z,14.5
2018-04-10T02:00:42.747Z,14.5
2018-04-10T02:00:54.922Z,14.5
2018-04-10T02:01:07.097Z,14.5
2018-04-10T02:01:19.276Z,14.5
2018-04-10T02:01:31.459Z,14.5
2018-04-10T02:01:43.617Z,14.5
2018-04-10T02:01:55.775Z,14.5
2018-04-10T02:02:07.993Z,14.5
2018-04-10T02:02:20.134Z,14.5
2018-04-10T02:02:32.312Z,14.5
2018-04-10T02:02:44.501Z,14.5
2018-04-10T02:02:56.655Z,14.5
2018-04-10T02:03:08.799Z,14.5
2018-04-10T02:03:20.939Z,14.5
2018-04-10T02:03:33.094Z,14.5
2018-04-10T02:03:45.248Z,14.5
2018-04-10T02:03:57.409Z,14.5
2018-04-10T02:04:09.574Z,14.5
2018-04-10T02:04:21.713Z,14.5
2018-04-10T02:04:33.865Z,14.5
2018-04-10T02:04:46.007Z,14.5
2018-04-10T02:04:58.158Z,14.5
2018-04-10T02:05:10.310Z,14.5
2018-04-10T02:05:22.479Z,14.5
2018-04-10T02:05:34.655Z,14.5
2018-04-10T02:05:46.829Z,14.5
2018-04-10T02:05:59.002Z,14.5
2018-04-10T02:06:11.155Z,14.4444444444
2018-04-10T02:06:23.291Z,14.5
2018-04-10T02:06:35.431Z,14.4444444444
2018-04-10T02:06:47.564Z,14.5
2018-04-10T02:06:59.729Z,14.4444444444
2018-04-10T02:07:11.869Z,14.4444444444
2018-04-10T02:07:24.007Z,14.4444444444
2018-04-10T02:07:36.142Z,14.4444444444
2018-04-10T02:07:48.360Z,14.4444444444
2018-04-10T02:08:00.500Z,14.4444444444
2018-04-10T02:08:12.641Z,14.4444444444
2018-04-10T02:08:25.023Z,14.4444444444
2018-04-10T02:08:37.197Z,14.4444444444
2018-04-10T02:08:49.392Z,14.4444444444
2018-04-10T02:09:01.539Z,14.4444444444
2018-04-10T02:09:13.690Z,14.4444444444
2018-04-10T02:11:50.958Z,14.3888888889
2018-04-10T02:12:03.100Z,14.3888888889
2018-04-10T02:12:46.250Z,14.3333333333
2018-04-10T02:12:58.513Z,14.3333333333
2018-04-10T02:13:10.777Z,14.3333333333
2018-04-10T02:13:22.891Z,14.3333333333
2018-04-10T02:13:34.989Z,14.3333333333
2018-04-10T02:13:47.101Z,14.3333333333
2018-04-10T02:13:59.206Z,14.3333333333
2018-04-10T02:14:11.314Z,14.3333333333
2018-04-10T02:14:23.416Z,14.3333333333
2018-04-10T02:14:35.549Z,14.3333333333
2018-04-10T02:14:47.893Z,14.2777777778
2018-04-10T02:15:00.015Z,14.3333333333
2018-04-10T02:15:12.128Z,14.2777777778
2018-04-10T02:15:24.257Z,14.2777777778
2018-04-10T02:15:36.385Z,14.2777777778
2018-04-10T02:15:48.794Z,14.2777777778
2018-04-10T02:16:00.896Z,14.2777777778
2018-04-10T02:16:12.987Z,14.2777777778
2018-04-10T02:16:25.113Z,14.2777777778
2018-04-10T02:16:37.219Z,14.2777777778
2018-04-10T02:16:49.333Z,14.2777777778
2018-04-10T02:17:01.463Z,14.2777777778
2018-04-10T02:17:13.579Z,14.2222222222
2018-04-10T02:17:25.693Z,14.2222222222
2018-04-10T02:17:37.800Z,14.2222222222
2018-04-10T02:17:49.903Z,14.2222222222
2018-04-10T02:18:02.162Z,14.2222222222
2018-04-10T02:18:14.304Z,14.2222222222
2018-04-10T02:18:26.456Z,14.2222222222